Time;durP1;ratioP1;P1;durP2;ratioP2;P2;SDS_P1;SDS_P2;PMS_P1;PMS_P2;Temp;Humidity;BMP_temperature;BMP_pressure;BME280_temperature;BME280_humidity;BME280_pressure;Samples;Min_cycle;Max_cycle;Signal;HPM_P1;HPM_P2
2021/08/09 00:00:15;;;;;;;0.60;0.60;;;26.30;55.30;;;;;;5026934;28;20064;-68
2021/08/09 00:02:43;;;;;;;0.73;0.65;;;26.40;55.40;;;;;;5026677;28;20046;-69
2021/08/09 00:05:10;;;;;;;0.60;0.60;;;26.40;55.40;;;;;;5026734;28;20068;-68
2021/08/09 00:07:37;;;;;;;0.93;0.57;;;26.30;55.30;;;;;;5026821;28;20046;-68
2021/08/09 00:10:05;;;;;;;1.58;0.70;;;26.30;55.30;;;;;;5026721;28;20064;-68
2021/08/09 00:12:32;;;;;;;0.50;0.50;;;26.30;55.80;;;;;;5026915;28;20446;-69
2021/08/09 00:14:59;;;;;;;0.60;0.60;;;26.30;55.30;;;;;;5025397;28;20059;-69
2021/08/09 00:17:26;;;;;;;0.77;0.77;;;26.30;55.30;;;;;;5026732;28;20140;-69
2021/08/09 00:19:54;;;;;;;0.60;0.60;;;26.30;55.30;;;;;;5026281;28;20053;-69
2021/08/09 00:22:21;;;;;;;0.82;0.73;;;26.30;55.30;;;;;;5026714;28;20056;-68
2021/08/09 00:24:48;;;;;;;0.65;0.65;;;26.30;55.30;;;;;;5025834;28;20049;-69
2021/08/09 00:27:15;;;;;;;1.95;0.60;;;26.30;55.30;;;;;;5026530;28;20141;-69
2021/08/09 00:29:43;;;;;;;0.40;0.40;;;26.30;55.40;;;;;;5025426;28;20068;-68
2021/08/09 00:32:10;;;;;;;0.55;0.55;;;26.30;55.40;;;;;;5026647;28;20053;-68
2021/08/09 00:34:38;;;;;;;0.50;0.50;;;26.30;55.40;;;;;;5026306;28;20064;-68
2021/08/09 00:37:05;;;;;;;0.52;0.52;;;26.30;55.40;;;;;;5026202;28;20061;-68
2021/08/09 00:39:32;;;;;;;0.60;0.60;;;26.30;55.40;;;;;;5026379;28;20049;-68
2021/08/09 00:42:00;;;;;;;0.45;0.45;;;26.30;55.40;;;;;;5025985;28;20059;-68
2021/08/09 00:44:27;;;;;;;0.75;0.60;;;26.30;55.40;;;;;;5026068;28;20502;-68
2021/08/09 00:46:54;;;;;;;0.50;0.50;;;26.30;55.40;;;;;;5026388;28;20577;-69
2021/08/09 00:49:21;;;;;;;1.83;0.60;;;26.20;55.40;;;;;;5025921;28;20505;-68
2021/08/09 00:51:48;;;;;;;0.40;0.40;;;26.20;55.40;;;;;;5025938;28;20152;-70
2021/08/09 00:54:16;;;;;;;0.65;0.65;;;26.20;55.40;;;;;;5026119;28;20440;-68
2021/08/09 00:56:43;;;;;;;0.60;0.60;;;26.20;55.40;;;;;;5025716;28;20499;-68
2021/08/09 00:59:10;;;;;;;0.88;0.77;;;26.20;55.40;;;;;;5026176;28;20060;-68
2021/08/09 01:01:38;;;;;;;0.90;0.60;;;26.20;55.40;;;;;;5025912;28;20144;-68
2021/08/09 01:04:06;;;;;;;0.43;0.43;;;26.20;55.40;;;;;;5025927;28;20049;-68
2021/08/09 01:06:33;;;;;;;0.50;0.50;;;26.20;55.40;;;;;;5024720;28;20569;-68
2021/08/09 01:09:18;;;;;;;0.57;0.57;;;26.20;55.40;;;;;;5025824;28;20160;-68
2021/08/09 01:12:13;;;;;;;0.20;0.20;;;26.20;55.40;;;;;;5023447;28;20130;-68
2021/08/09 01:14:53;;;;;;;0.40;0.40;;;26.20;55.40;;;;;;5005792;28;20141;-68
2021/08/09 01:17:23;;;;;;;0.63;0.63;;;26.20;55.40;;;;;;5005968;28;20521;-68
2021/08/09 01:20:18;;;;;;;0.57;0.57;;;26.20;55.40;;;;;;5005767;28;20542;-68
2021/08/09 01:23:10;;;;;;;0.40;0.40;;;26.20;55.40;;;;;;5005844;28;20054;-68
2021/08/09 01:26:12;;;;;;;0.70;0.50;;;26.20;55.40;;;;;;5005758;28;20046;-68
2021/08/09 01:28:40;;;;;;;0.50;0.50;;;26.20;55.40;;;;;;5005896;28;20049;-68
2021/08/09 01:31:08;;;;;;;0.55;0.55;;;26.20;55.40;;;;;;5005842;28;20057;-69
2021/08/09 01:33:36;;;;;;;0.47;0.47;;;26.20;55.30;;;;;;5006222;28;20054;-68
2021/08/09 01:36:05;;;;;;;0.40;0.40;;;26.20;55.30;;;;;;5005565;28;20490;-68
2021/08/09 01:38:36;;;;;;;0.47;0.47;;;26.20;55.30;;;;;;5005794;28;21104;-68
2021/08/09 01:41:05;;;;;;;0.60;0.60;;;26.20;55.30;;;;;;5004552;28;20132;-69
2021/08/09 01:43:33;;;;;;;0.50;0.50;;;26.20;55.30;;;;;;5005445;28;20561;-68
2021/08/09 01:46:01;;;;;;;0.30;0.30;;;26.20;55.30;;;;;;5005780;28;20513;-69
2021/08/09 01:48:29;;;;;;;0.50;0.50;;;26.20;55.30;;;;;;5005405;28;20058;-68
2021/08/09 01:50:56;;;;;;;0.38;0.38;;;26.20;55.30;;;;;;5005785;28;20085;-68
2021/08/09 01:53:24;;;;;;;0.40;0.40;;;26.20;55.30;;;;;;5005316;28;20065;-68
2021/08/09 01:55:52;;;;;;;0.50;0.50;;;26.20;55.30;;;;;;5005635;28;20413;-68
2021/08/09 01:58:19;;;;;;;1.13;0.60;;;26.20;55.30;;;;;;5005554;28;20058;-68
2021/08/09 02:00:46;;;;;;;0.50;0.50;;;26.20;55.40;;;;;;5005414;28;20476;-69
2021/08/09 02:03:15;;;;;;;1.42;0.95;;;26.20;55.40;;;;;;5005413;28;20983;-69
2021/08/09 02:05:42;;;;;;;0.38;0.38;;;26.20;55.30;;;;;;5005477;28;20136;-68
2021/08/09 02:08:12;;;;;;;0.45;0.45;;;26.20;55.30;;;;;;5005556;28;20058;-68
2021/08/09 02:10:41;;;;;;;0.63;0.50;;;26.20;55.40;;;;;;5005540;28;20049;-68
2021/08/09 02:13:32;;;;;;;0.40;0.40;;;26.20;55.40;;;;;;5018721;28;20088;-69
2021/08/09 02:16:19;;;;;;;4.95;0.75;;;26.20;55.40;;;;;;5025176;28;20049;-68
2021/08/09 02:18:53;;;;;;;0.47;0.47;;;26.20;55.40;;;;;;5027939;28;20103;-68
2021/08/09 02:21:26;;;;;;;0.50;0.50;;;26.10;55.30;;;;;;5028907;28;20057;-68
2021/08/09 02:24:01;;;;;;;0.30;0.30;;;26.10;55.30;;;;;;5028674;28;20136;-68
2021/08/09 02:26:36;;;;;;;0.40;0.40;;;26.10;55.30;;;;;;5028418;28;20136;-68
2021/08/09 02:29:10;;;;;;;0.50;0.50;;;26.10;55.30;;;;;;5028586;28;20065;-69
2021/08/09 02:31:39;;;;;;;0.75;0.40;;;26.10;55.30;;;;;;5028867;28;20057;-68
2021/08/09 02:34:09;;;;;;;0.30;0.30;;;26.10;55.30;;;;;;5029069;28;20057;-68
2021/08/09 02:36:37;;;;;;;;;;;26.10;55.30;;;;;;5028859;28;20081;-68
2021/08/09 02:39:05;;;;;;;0.55;0.50;;;26.10;55.30;;;;;;5028675;28;19947;-68
2021/08/09 02:41:32;;;;;;;0.40;0.40;;;26.10;55.30;;;;;;5028442;28;20057;-68
2021/08/09 02:44:00;;;;;;;0.55;0.55;;;26.10;55.30;;;;;;5027990;28;20140;-68
2021/08/09 02:46:28;;;;;;;0.40;0.40;;;26.10;55.90;;;;;;5028573;28;20153;-68
2021/08/09 02:48:55;;;;;;;0.38;0.38;;;26.10;55.40;;;;;;5028350;28;20068;-68
2021/08/09 02:51:24;;;;;;;0.50;0.50;;;26.10;55.40;;;;;;5028041;28;20049;-68
2021/08/09 02:53:51;;;;;;;0.40;0.40;;;26.10;55.40;;;;;;5028002;28;20107;-68
2021/08/09 02:56:24;;;;;;;0.40;0.40;;;26.10;55.40;;;;;;5028169;28;20140;-68
2021/08/09 02:58:52;;;;;;;0.40;0.40;;;26.10;55.30;;;;;;5028282;28;20057;-68
2021/08/09 03:01:19;;;;;;;0.40;0.40;;;26.10;55.40;;;;;;5028051;28;20140;-69
2021/08/09 03:03:49;;;;;;;0.32;0.20;;;26.10;55.30;;;;;;5028004;28;20057;-68
2021/08/09 03:06:16;;;;;;;0.40;0.40;;;26.10;55.30;;;;;;5027891;28;20057;-68
2021/08/09 03:08:44;;;;;;;0.50;0.30;;;26.10;55.30;;;;;;5027802;28;20060;-68
2021/08/09 03:11:13;;;;;;;0.50;0.50;;;26.10;55.30;;;;;;5027223;28;20060;-71
2021/08/09 03:13:46;;;;;;;0.38;0.38;;;26.10;55.30;;;;;;5009555;28;20054;-68
2021/08/09 03:16:13;;;;;;;0.30;0.30;;;26.10;55.30;;;;;;5008014;28;20421;-69
2021/08/09 03:18:41;;;;;;;0.40;0.40;;;26.10;55.30;;;;;;5007883;28;20054;-68
2021/08/09 03:21:08;;;;;;;0.57;0.57;;;26.10;55.20;;;;;;5008007;28;20096;-68
2021/08/09 03:23:36;;;;;;;0.40;0.35;;;26.10;55.30;;;;;;5007917;28;20054;-68
2021/08/09 03:26:03;;;;;;;0.50;0.50;;;26.10;55.30;;;;;;5007793;28;20060;-68
2021/08/09 03:28:34;;;;;;;0.32;0.32;;;26.10;55.30;;;;;;5008251;28;20398;-68
2021/08/09 03:31:03;;;;;;;0.50;0.47;;;26.10;55.80;;;;;;5007429;28;20140;-68
2021/08/09 03:33:31;;;;;;;0.40;0.40;;;26.10;55.30;;;;;;5008321;28;20127;-68
2021/08/09 03:35:59;;;;;;;0.30;0.30;;;26.10;55.30;;;;;;5007861;28;20053;-68
2021/08/09 03:38:26;;;;;;;0.40;0.40;;;26.10;55.30;;;;;;5007310;28;20054;-69
2021/08/09 03:40:53;;;;;;;0.40;0.40;;;26.00;55.30;;;;;;5007526;28;20046;-68
2021/08/09 03:43:20;;;;;;;0.43;0.43;;;26.10;55.30;;;;;;5007335;28;20149;-68
2021/08/09 03:45:47;;;;;;;0.57;0.57;;;26.00;55.30;;;;;;5007431;28;20049;-68
2021/08/09 03:48:15;;;;;;;0.50;0.38;;;26.00;55.30;;;;;;5007151;28;20046;-68
2021/08/09 03:50:42;;;;;;;0.40;0.40;;;26.10;55.30;;;;;;5007087;28;20050;-68
2021/08/09 03:53:09;;;;;;;0.30;0.30;;;26.00;55.30;;;;;;5007431;28;20061;-68
2021/08/09 03:55:36;;;;;;;0.40;0.40;;;26.00;55.30;;;;;;5006991;28;20060;-68
2021/08/09 03:58:03;;;;;;;0.40;0.40;;;26.10;55.30;;;;;;5007070;28;20058;-68
2021/08/09 04:00:30;;;;;;;0.30;0.30;;;26.10;55.30;;;;;;5007279;28;20140;-68
2021/08/09 04:02:58;;;;;;;0.55;0.40;;;26.10;55.30;;;;;;5006632;28;20061;-68
2021/08/09 04:05:25;;;;;;;0.35;0.30;;;26.10;55.20;;;;;;5009610;28;20054;-69
2021/08/09 04:07:53;;;;;;;0.57;0.43;;;26.10;55.20;;;;;;5017534;28;20565;-68
2021/08/09 04:10:20;;;;;;;0.60;0.40;;;26.10;55.20;;;;;;5017038;28;20136;-70
2021/08/09 04:12:48;;;;;;;0.52;0.52;;;26.00;55.10;;;;;;5019840;28;20053;-68
2021/08/09 04:15:15;;;;;;;0.40;0.40;;;26.10;55.20;;;;;;5014793;28;20050;-68
2021/08/09 04:17:44;;;;;;;0.45;0.45;;;26.10;55.10;;;;;;5017879;28;20049;-68
2021/08/09 04:20:11;;;;;;;0.35;0.30;;;26.10;55.10;;;;;;5016242;28;20042;-68
2021/08/09 04:22:38;;;;;;;0.30;0.30;;;26.10;55.10;;;;;;5015281;28;20494;-68
2021/08/09 04:25:06;;;;;;;0.75;0.30;;;26.10;55.00;;;;;;5006318;28;20482;-68
2021/08/09 04:27:33;;;;;;;0.88;0.68;;;26.10;55.00;;;;;;5010291;28;20068;-69
2021/08/09 04:30:01;;;;;;;0.35;0.35;;;26.10;54.90;;;;;;5007809;28;20046;-68
2021/08/09 04:32:40;;;;;;;0.20;0.20;;;26.10;54.90;;;;;;5006610;28;20165;-68
2021/08/09 04:35:11;;;;;;;0.30;0.30;;;26.20;54.90;;;;;;5012280;28;20055;-68
2021/08/09 04:37:39;;;;;;;0.30;0.30;;;26.20;54.80;;;;;;5015743;28;20084;-68
2021/08/09 04:40:08;;;;;;;0.85;0.50;;;26.20;54.80;;;;;;5017439;28;20207;-69
2021/08/09 04:42:37;;;;;;;0.40;0.40;;;26.20;54.70;;;;;;5014521;28;20388;-69
2021/08/09 04:45:05;;;;;;;0.38;0.30;;;26.20;54.60;;;;;;5017514;28;20081;-70
2021/08/09 04:47:32;;;;;;;0.40;0.40;;;26.20;54.60;;;;;;5014133;28;20052;-70
2021/08/09 04:49:59;;;;;;;0.40;0.40;;;26.30;54.50;;;;;;5022459;28;20124;-70
2021/08/09 04:52:26;;;;;;;0.30;0.30;;;26.30;54.40;;;;;;5015451;28;20132;-70
2021/08/09 04:54:53;;;;;;;0.30;0.30;;;26.40;54.40;;;;;;5023889;28;20053;-70
2021/08/09 04:57:21;;;;;;;0.50;0.50;;;26.40;54.20;;;;;;5024368;28;20075;-70
2021/08/09 04:59:48;;;;;;;0.45;0.40;;;26.40;54.10;;;;;;5023133;28;20136;-70
2021/08/09 05:02:15;;;;;;;0.40;0.40;;;26.40;53.90;;;;;;5023981;28;20079;-70
2021/08/09 05:04:42;;;;;;;0.40;0.40;;;26.40;53.80;;;;;;5024812;28;20049;-70
2021/08/09 05:07:09;;;;;;;1.55;0.35;;;26.40;53.70;;;;;;5020740;28;20054;-70
2021/08/09 05:09:37;;;;;;;0.77;0.30;;;26.40;53.70;;;;;;5016290;28;20045;-70
2021/08/09 05:12:04;;;;;;;0.47;0.30;;;26.40;53.70;;;;;;5018123;28;20307;-70
2021/08/09 05:14:31;;;;;;;0.85;0.28;;;26.40;53.70;;;;;;5015490;28;20092;-70
2021/08/09 05:16:58;;;;;;;1.55;0.40;;;26.30;53.70;;;;;;5013624;28;20053;-70
2021/08/09 05:19:25;;;;;;;1.20;0.38;;;26.20;53.70;;;;;;5014133;28;20054;-70
2021/08/09 05:21:53;;;;;;;0.52;0.38;;;26.20;53.80;;;;;;5013624;28;20045;-74
2021/08/09 05:24:20;;;;;;;0.65;0.30;;;26.00;53.80;;;;;;5019173;28;20045;-74
2021/08/09 05:26:48;;;;;;;1.10;0.45;;;25.90;53.60;;;;;;5017677;28;20045;-74
2021/08/09 05:29:15;;;;;;;0.40;0.40;;;25.70;53.90;;;;;;5013998;28;20084;-73
2021/08/09 05:31:42;;;;;;;3.67;0.75;;;25.60;54.40;;;;;;5012486;28;20133;-73
2021/08/09 05:34:09;;;;;;;1.85;0.40;;;25.40;53.80;;;;;;5014375;28;20132;-71
2021/08/09 05:36:36;;;;;;;0.63;0.63;;;25.30;54.30;;;;;;5012104;28;20045;-72
2021/08/09 05:39:04;;;;;;;1.15;0.68;;;25.10;54.20;;;;;;5013460;28;20052;-74
2021/08/09 05:41:33;;;;;;;3.55;1.58;;;24.90;54.50;;;;;;5019245;28;20075;-63
2021/08/09 05:44:01;;;;;;;0.70;0.70;;;24.70;54.70;;;;;;5017307;28;20049;-62
2021/08/09 05:46:29;;;;;;;1.05;0.90;;;24.60;55.00;;;;;;5016607;28;20076;-64
2021/08/09 05:48:59;;;;;;;0.60;0.60;;;24.50;55.40;;;;;;5016482;28;20513;-64
2021/08/09 05:51:26;;;;;;;1.00;0.57;;;24.40;56.00;;;;;;5015397;28;20782;-65
2021/08/09 05:53:53;;;;;;;3.00;0.70;;;24.30;56.30;;;;;;5017238;28;20414;-67
2021/08/09 05:56:20;;;;;;;1.13;0.60;;;24.30;56.50;;;;;;5019303;28;20057;-67
2021/08/09 05:58:48;;;;;;;0.63;0.63;;;24.20;56.30;;;;;;5017523;28;20554;-67
2021/08/09 06:01:15;;;;;;;0.30;0.30;;;24.10;56.20;;;;;;5022301;28;20045;-67
2021/08/09 06:03:42;;;;;;;0.88;0.60;;;24.10;56.20;;;;;;5016638;28;20410;-68
2021/08/09 06:06:17;;;;;;;0.57;0.55;;;24.00;56.10;;;;;;5019195;28;20502;-69
2021/08/09 06:08:46;;;;;;;0.63;0.63;;;24.00;56.30;;;;;;5017460;28;20115;-68
2021/08/09 06:11:13;;;;;;;0.38;0.38;;;24.00;57.00;;;;;;5011386;28;20141;-66
2021/08/09 06:13:41;;;;;;;0.32;0.32;;;23.90;56.50;;;;;;5016281;28;20089;-66
2021/08/09 06:16:08;;;;;;;0.47;0.47;;;23.90;56.40;;;;;;5019382;28;20172;-64
2021/08/09 06:18:36;;;;;;;2.38;0.85;;;23.90;56.60;;;;;;5018072;28;20514;-64
2021/08/09 06:21:04;;;;;;;1.27;0.57;;;23.90;56.60;;;;;;5019747;28;20049;-66
2021/08/09 06:23:32;;;;;;;0.60;0.60;;;23.90;56.50;;;;;;5017095;28;20068;-66
2021/08/09 06:25:59;;;;;;;0.47;0.40;;;23.90;56.50;;;;;;5020286;28;20045;-71
2021/08/09 06:28:26;;;;;;;0.60;0.60;;;23.90;56.40;;;;;;5022813;28;20196;-70
2021/08/09 06:30:53;;;;;;;6.63;0.63;;;23.90;55.80;;;;;;5023410;28;20053;-68
2021/08/09 06:33:21;;;;;;;1.00;0.32;;;23.80;55.80;;;;;;5017894;28;20564;-67
2021/08/09 06:35:48;;;;;;;1.02;0.70;;;23.80;56.00;;;;;;5018176;28;20045;-68
2021/08/09 06:38:15;;;;;;;1.17;0.40;;;23.80;56.40;;;;;;5017703;28;20088;-69
2021/08/09 06:40:45;;;;;;;0.40;0.40;;;23.80;56.50;;;;;;5019812;28;20100;-70
2021/08/09 06:43:13;;;;;;;4.38;0.38;;;23.80;56.50;;;;;;5018781;28;20498;-68
2021/08/09 06:45:44;;;;;;;0.25;0.13;;;23.80;56.50;;;;;;5020154;28;20128;-67
2021/08/09 06:48:12;;;;;;;0.40;0.40;;;23.80;56.50;;;;;;5019348;28;20164;-67
2021/08/09 06:50:40;;;;;;;0.50;0.50;;;23.80;56.40;;;;;;5025084;28;20453;-68
2021/08/09 06:53:08;;;;;;;3.22;0.50;;;23.80;56.30;;;;;;5023944;28;20045;-67
2021/08/09 06:55:35;;;;;;;0.90;0.30;;;23.80;56.40;;;;;;5017671;28;20504;-68
2021/08/09 06:58:03;;;;;;;3.63;0.30;;;23.80;56.40;;;;;;5019584;28;20045;-65
2021/08/09 07:00:30;;;;;;;0.90;0.38;;;23.80;56.60;;;;;;5020583;28;20049;-68
2021/08/09 07:03:03;;;;;;;2.05;0.50;;;23.70;56.90;;;;;;5023222;28;20502;-70
2021/08/09 07:05:30;;;;;;;0.73;0.60;;;23.80;57.30;;;;;;5022855;28;20693;-64
2021/08/09 07:07:58;;;;;;;1.95;0.38;;;23.80;57.30;;;;;;5023584;28;20132;-70
2021/08/09 07:10:25;;;;;;;0.60;0.50;;;23.80;57.40;;;;;;5020678;28;20056;-67
2021/08/09 07:12:52;;;;;;;2.45;0.70;;;23.80;57.20;;;;;;5020125;28;20056;-61
2021/08/09 07:15:19;;;;;;;2.75;0.40;;;23.80;57.20;;;;;;5018741;28;20470;-60
2021/08/09 07:17:46;;;;;;;6.50;0.70;;;23.90;57.20;;;;;;5019910;28;20136;-62
2021/08/09 07:20:15;;;;;;;1.10;0.50;;;23.90;57.00;;;;;;5015856;28;20057;-64
2021/08/09 07:22:44;;;;;;;0.43;0.40;;;23.90;56.90;;;;;;5018830;28;20073;-61
2021/08/09 07:25:13;;;;;;;0.57;0.50;;;23.90;56.70;;;;;;5017720;28;20049;-60
2021/08/09 07:27:41;;;;;;;0.93;0.77;;;23.90;56.70;;;;;;5018240;28;20068;-59
2021/08/09 07:30:11;;;;;;;1.10;0.43;;;23.90;56.50;;;;;;5017389;28;20136;-62
2021/08/09 07:32:39;;;;;;;0.75;0.55;;;24.00;56.40;;;;;;5022988;28;20076;-60
2021/08/09 07:35:07;;;;;;;0.40;0.40;;;24.00;56.20;;;;;;5021458;28;20875;-62
2021/08/09 07:37:34;;;;;;;1.65;0.52;;;24.00;56.20;;;;;;5021908;28;20045;-60
2021/08/09 07:40:01;;;;;;;0.68;0.55;;;23.90;56.00;;;;;;5020168;28;20508;-62
2021/08/09 07:42:29;;;;;;;0.40;0.30;;;24.00;56.10;;;;;;5022053;28;20139;-59
2021/08/09 07:44:57;;;;;;;0.75;0.60;;;24.00;56.10;;;;;;5022461;28;20067;-59
2021/08/09 07:47:24;;;;;;;0.85;0.30;;;24.00;56.20;;;;;;5022765;28;20139;-67
2021/08/09 07:49:51;;;;;;;2.20;0.50;;;24.00;56.40;;;;;;5024866;28;20049;-61
2021/08/09 07:52:19;;;;;;;2.75;0.52;;;24.00;56.30;;;;;;5020572;28;20460;-60
2021/08/09 07:54:46;;;;;;;0.73;0.40;;;24.00;56.50;;;;;;5038913;28;20049;-60
2021/08/09 07:57:14;;;;;;;3.65;0.38;;;24.00;56.60;;;;;;5021438;28;20391;-62
2021/08/09 07:59:41;;;;;;;0.30;0.28;;;24.10;56.50;;;;;;5018878;28;20053;-62
2021/08/09 08:02:09;;;;;;;0.70;0.70;;;24.10;56.40;;;;;;5017466;28;20049;-69
2021/08/09 08:04:36;;;;;;;1.55;0.40;;;24.10;56.40;;;;;;5021079;28;20050;-64
2021/08/09 08:07:03;;;;;;;0.38;0.38;;;24.10;56.10;;;;;;5015665;28;20426;-71
2021/08/09 08:09:30;;;;;;;1.60;0.30;;;24.10;56.00;;;;;;5021808;28;20893;-64
2021/08/09 08:11:59;;;;;;;1.85;0.60;;;24.10;55.90;;;;;;5012412;28;20107;-69
2021/08/09 08:14:28;;;;;;;1.60;0.43;;;24.20;55.70;;;;;;5014754;28;20077;-63
2021/08/09 08:16:55;;;;;;;1.80;0.50;;;24.20;55.70;;;;;;5014875;28;20057;-63
2021/08/09 08:19:22;;;;;;;0.40;0.40;;;24.20;55.70;;;;;;5013378;28;20495;-65
2021/08/09 08:21:49;;;;;;;0.85;0.40;;;24.20;55.80;;;;;;5013882;28;20080;-66
2021/08/09 08:24:16;;;;;;;0.63;0.43;;;24.30;55.80;;;;;;5019195;28;20052;-63
2021/08/09 08:26:44;;;;;;;1.63;0.40;;;24.20;55.70;;;;;;5015234;28;20049;-65
2021/08/09 08:29:11;;;;;;;0.73;0.43;;;24.20;55.70;;;;;;5018221;28;20487;-63
2021/08/09 08:31:42;;;;;;;1.70;0.68;;;24.20;55.80;;;;;;5020205;28;20045;-63
2021/08/09 08:34:09;;;;;;;4.97;0.50;;;24.10;55.70;;;;;;5019000;28;20139;-64
2021/08/09 08:36:36;;;;;;;1.52;0.47;;;24.20;55.70;;;;;;5017774;28;20669;-63
2021/08/09 08:39:06;;;;;;;1.27;0.57;;;24.10;55.70;;;;;;5015916;28;20136;-64
2021/08/09 08:41:35;;;;;;;0.20;0.20;;;24.10;55.90;;;;;;5029167;28;20051;-64
2021/08/09 08:44:02;;;;;;;0.35;0.35;;;24.10;55.70;;;;;;5018854;28;20089;-64
2021/08/09 08:46:29;;;;;;;0.50;0.50;;;24.10;55.70;;;;;;5016103;28;20053;-65
2021/08/09 08:49:01;;;;;;;0.35;0.30;;;24.10;56.30;;;;;;4996009;28;20053;-65
2021/08/09 08:51:29;;;;;;;0.47;0.30;;;24.10;55.70;;;;;;5013318;28;20168;-64
2021/08/09 08:53:56;;;;;;;0.10;0.10;;;24.10;55.80;;;;;;5019898;28;20144;-67
2021/08/09 08:56:24;;;;;;;1.02;0.30;;;24.10;55.90;;;;;;5016512;28;20487;-64
2021/08/09 08:58:51;;;;;;;1.25;0.15;;;24.10;55.90;;;;;;5018008;28;20053;-67
2021/08/09 09:01:33;;;;;;;0.65;0.50;;;24.10;55.90;;;;;;5016618;28;20059;-61
2021/08/09 09:04:22;;;;;;;0.43;0.40;;;24.10;55.90;;;;;;5020818;28;20379;-66
2021/08/09 09:07:07;;;;;;;0.40;0.40;;;24.10;55.90;;;;;;5014164;28;20108;-66
2021/08/09 09:09:39;;;;;;;0.82;0.40;;;24.10;55.90;;;;;;5010900;28;20085;-66
2021/08/09 09:12:16;;;;;;;0.30;0.30;;;24.10;55.90;;;;;;5013648;28;20045;-66
2021/08/09 09:14:44;;;;;;;0.30;0.30;;;24.10;56.00;;;;;;5016333;28;20063;-66
2021/08/09 09:17:11;;;;;;;1.38;0.35;;;24.10;56.10;;;;;;5018053;28;20565;-66
2021/08/09 09:19:44;;;;;;;0.43;0.43;;;24.10;56.30;;;;;;5021844;28;20057;-66
2021/08/09 09:22:22;;;;;;;0.68;0.30;;;24.10;56.50;;;;;;5023490;28;20114;-66
2021/08/09 09:24:52;;;;;;;0.73;0.30;;;24.10;56.50;;;;;;5025358;28;20059;-66
2021/08/09 09:27:28;;;;;;;0.43;0.40;;;24.10;56.40;;;;;;5016272;28;20104;-66
2021/08/09 09:29:56;;;;;;;0.85;0.43;;;24.10;56.30;;;;;;5013772;28;20069;-66
2021/08/09 09:32:25;;;;;;;1.90;0.30;;;24.10;56.50;;;;;;5019644;28;20073;-66
2021/08/09 09:34:55;;;;;;;0.20;0.20;;;24.10;56.50;;;;;;5021839;28;20184;-65
2021/08/09 09:37:23;;;;;;;;;;;24.10;56.70;;;;;;5018806;28;20482;-64
2021/08/09 09:39:50;;;;;;;1.35;0.40;;;24.10;56.70;;;;;;5020148;28;19929;-63
2021/08/09 09:42:18;;;;;;;2.05;0.40;;;24.10;56.70;;;;;;5021201;28;20083;-63
2021/08/09 09:44:45;;;;;;;0.20;0.20;;;24.10;56.80;;;;;;5022122;28;20045;-62
2021/08/09 09:47:25;;;;;;;0.40;0.30;;;24.10;56.80;;;;;;5023172;28;20057;-63
2021/08/09 09:49:55;;;;;;;0.30;0.30;;;24.10;57.10;;;;;;5021882;28;20100;-65
2021/08/09 09:52:40;;;;;;;0.60;0.20;;;24.20;57.30;;;;;;5014860;28;20136;-62
2021/08/09 09:55:10;;;;;;;1.67;0.40;;;24.20;57.20;;;;;;5018062;28;20065;-61
2021/08/09 09:57:38;;;;;;;1.77;0.32;;;24.20;57.20;;;;;;5017325;28;21233;-62
2021/08/09 10:00:12;;;;;;;3.47;0.40;;;24.20;57.30;;;;;;5013806;28;20140;-62
2021/08/09 10:02:48;;;;;;;0.95;0.30;;;24.20;57.30;;;;;;5018989;28;20064;-63
2021/08/09 10:05:16;;;;;;;0.50;0.50;;;24.20;57.20;;;;;;5014695;28;20830;-62
2021/08/09 10:07:50;;;;;;;0.80;0.38;;;24.20;57.30;;;;;;5014662;28;20568;-62
2021/08/09 10:10:24;;;;;;;0.52;0.45;;;24.20;57.30;;;;;;5010045;28;20140;-63
2021/08/09 10:12:52;;;;;;;0.43;0.30;;;24.30;57.10;;;;;;5013923;28;20045;-62
2021/08/09 10:15:21;;;;;;;3.20;0.50;;;24.30;56.90;;;;;;5016138;28;20052;-61
2021/08/09 10:17:50;;;;;;;0.55;0.30;;;24.30;57.10;;;;;;5015083;28;20140;-61
2021/08/09 10:20:19;;;;;;;0.70;0.60;;;24.30;57.10;;;;;;5013286;28;20050;-63
2021/08/09 10:23:05;;;;;;;0.45;0.38;;;24.30;57.20;;;;;;5012988;28;20111;-61
2021/08/09 10:25:47;;;;;;;0.38;0.30;;;24.30;57.10;;;;;;5016996;28;20390;-63
2021/08/09 10:28:15;;;;;;;0.50;0.40;;;24.30;57.30;;;;;;5016200;28;20580;-63
2021/08/09 10:30:42;;;;;;;0.30;0.30;;;24.40;57.20;;;;;;5015895;28;20566;-63
2021/08/09 10:33:10;;;;;;;1.27;0.50;;;24.40;57.10;;;;;;5013329;28;20489;-62
2021/08/09 10:35:56;;;;;;;0.40;0.40;;;24.40;57.00;;;;;;5022112;28;21491;-61
2021/08/09 10:38:25;;;;;;;1.50;0.60;;;24.40;57.00;;;;;;5013159;28;20054;-63
2021/08/09 10:41:33;;;;;;;0.90;0.40;;;24.40;57.00;;;;;;5014782;28;20088;-62
2021/08/09 10:44:21;;;;;;;0.70;0.70;;;24.50;56.90;;;;;;5014473;28;20052;-62
2021/08/09 10:46:50;;;;;;;0.60;0.47;;;24.40;56.90;;;;;;5016547;28;20064;-61
2021/08/09 10:49:46;;;;;;;1.30;0.40;;;24.50;56.90;;;;;;5016704;28;20089;-61
2021/08/09 10:52:32;;;;;;;2.10;0.68;;;24.50;56.90;;;;;;5018290;28;20560;-61
2021/08/09 10:55:39;;;;;;;1.40;0.50;;;24.50;56.90;;;;;;5022670;28;20052;-61
2021/08/09 10:58:06;;;;;;;0.77;0.38;;;24.40;56.90;;;;;;5021773;28;20053;-61
2021/08/09 11:00:54;;;;;;;2.00;0.95;;;24.50;56.80;;;;;;5019468;28;20072;-61
2021/08/09 11:03:21;;;;;;;2.90;0.50;;;24.50;56.70;;;;;;5019093;28;20432;-62
2021/08/09 11:05:49;;;;;;;2.50;0.70;;;24.50;56.60;;;;;;5018174;28;20148;-63
2021/08/09 11:08:32;;;;;;;0.75;0.75;;;24.50;56.50;;;;;;5019177;28;20128;-63
2021/08/09 11:11:08;;;;;;;3.75;0.40;;;24.50;56.80;;;;;;5016293;28;20080;-61
2021/08/09 11:14:09;;;;;;;1.02;0.57;;;24.50;57.00;;;;;;5020524;28;20076;-65
2021/08/09 11:16:37;;;;;;;0.50;0.50;;;24.50;56.90;;;;;;5022994;28;20125;-65
2021/08/09 11:19:04;;;;;;;1.33;0.32;;;24.50;56.70;;;;;;5020747;28;20058;-67
2021/08/09 11:21:31;;;;;;;0.32;0.32;;;24.50;56.60;;;;;;5025954;28;20270;-68
2021/08/09 11:23:58;;;;;;;3.63;0.30;;;24.50;56.50;;;;;;5021384;28;20067;-69
2021/08/09 11:26:28;;;;;;;0.77;0.40;;;24.50;56.40;;;;;;5022557;28;20554;-70
2021/08/09 11:29:01;;;;;;;2.13;0.50;;;24.50;56.50;;;;;;5021784;28;20056;-71
2021/08/09 11:31:43;;;;;;;0.77;0.60;;;24.50;56.40;;;;;;5019508;28;20042;-68
2021/08/09 11:34:10;;;;;;;0.30;0.30;;;24.50;56.40;;;;;;5019162;28;20145;-68
2021/08/09 11:36:37;;;;;;;2.45;0.40;;;24.50;56.90;;;;;;5021145;28;20073;-71
2021/08/09 11:39:05;;;;;;;2.65;0.55;;;24.60;56.20;;;;;;5020391;28;20152;-70
2021/08/09 11:41:32;;;;;;;0.55;0.55;;;24.50;56.20;;;;;;5017781;28;20054;-70
2021/08/09 11:44:07;;;;;;;0.85;0.40;;;24.50;56.30;;;;;;5022585;28;20056;-70
2021/08/09 11:46:47;;;;;;;0.93;0.60;;;24.50;56.30;;;;;;5017438;28;20053;-69
2021/08/09 11:49:16;;;;;;;4.00;0.60;;;24.50;56.40;;;;;;5019557;28;20077;-70
2021/08/09 11:51:44;;;;;;;0.50;0.40;;;24.50;56.60;;;;;;5019757;28;20569;-71
2021/08/09 11:54:11;;;;;;;0.95;0.50;;;24.60;56.70;;;;;;5022987;28;20057;-74
2021/08/09 11:56:39;;;;;;;0.38;0.30;;;24.50;56.70;;;;;;5017714;28;20145;-69
2021/08/09 11:59:11;;;;;;;0.50;0.50;;;24.60;56.90;;;;;;5019608;28;20075;-67
2021/08/09 12:01:43;;;;;;;0.45;0.45;;;24.50;56.90;;;;;;5017352;28;20080;-70
2021/08/09 12:04:15;;;;;;;0.50;0.50;;;24.60;57.00;;;;;;5023829;28;20052;-70
2021/08/09 12:06:57;;;;;;;0.52;0.50;;;24.60;57.00;;;;;;5024845;28;20107;-68
2021/08/09 12:09:42;;;;;;;0.57;0.30;;;24.60;57.10;;;;;;5018888;28;20713;-69
2021/08/09 12:12:12;;;;;;;0.40;0.40;;;24.60;57.20;;;;;;5018668;28;20053;-73
2021/08/09 12:14:40;;;;;;;0.38;0.38;;;24.60;57.30;;;;;;5019559;28;20037;-70
2021/08/09 12:17:17;;;;;;;1.50;0.50;;;24.60;57.50;;;;;;5023752;28;20053;-70
2021/08/09 12:19:47;;;;;;;0.47;0.47;;;24.70;57.60;;;;;;5018753;28;20054;-67
2021/08/09 12:22:31;;;;;;;0.50;0.50;;;24.70;57.70;;;;;;5018852;28;20049;-67
2021/08/09 12:25:15;;;;;;;0.50;0.40;;;24.70;57.80;;;;;;5025561;28;20148;-65
2021/08/09 12:27:43;;;;;;;1.00;0.60;;;24.70;57.90;;;;;;5023737;28;20077;-63
2021/08/09 12:30:13;;;;;;;3.70;0.90;;;24.70;58.10;;;;;;5024167;28;20067;-64
2021/08/09 12:32:42;;;;;;;;;;;24.70;58.40;;;;;;5021125;28;20041;-69
2021/08/09 12:35:11;;;;;;;0.50;0.50;;;24.80;58.40;;;;;;5022041;28;19939;-63
2021/08/09 12:37:39;;;;;;;1.85;0.70;;;24.80;58.40;;;;;;5025012;28;20073;-60
2021/08/09 12:40:16;;;;;;;0.50;0.50;;;24.90;58.60;;;;;;5021482;28;20505;-64
2021/08/09 12:43:00;;;;;;;2.50;1.02;;;24.90;58.70;;;;;;5020708;28;20558;-59
2021/08/09 12:45:27;;;;;;;0.82;0.55;;;24.90;58.60;;;;;;5021949;28;20045;-62
2021/08/09 12:47:54;;;;;;;2.15;0.40;;;24.90;58.50;;;;;;5018102;28;20053;-62
2021/08/09 12:50:22;;;;;;;1.88;0.40;;;24.90;58.40;;;;;;5024075;28;20509;-61
2021/08/09 12:52:49;;;;;;;3.53;0.60;;;25.00;58.40;;;;;;5020668;28;20148;-62
2021/08/09 12:55:17;;;;;;;0.40;0.40;;;25.00;58.10;;;;;;5035222;28;20056;-64
2021/08/09 12:57:44;;;;;;;0.50;0.50;;;25.00;58.10;;;;;;5021048;28;20124;-67
2021/08/09 13:00:12;;;;;;;0.50;0.50;;;25.00;58.10;;;;;;5021345;28;20057;-58
2021/08/09 13:02:39;;;;;;;2.97;0.60;;;25.00;58.20;;;;;;5018442;28;20084;-62